Time;durP1;ratioP1;P1;durP2;ratioP2;P2;SDS_P1;SDS_P2;PMS_P1;PMS_P2;Temp;Humidity;BMP_temperature;BMP_pressure;BME280_temperature;BME280_humidity;BME280_pressure;Samples;Min_cycle;Max_cycle;Signal;HPM_P1;HPM_P2
2022/05/10 00:00:46;;;;;;;0.70;0.70;;;;;;;1.62;72.30;99585.22;4765609;30;20053;-94
2022/05/10 00:03:40;;;;;;;0.60;0.60;;;;;;;1.90;71.82;99617.53;4790540;29;20059;-94
2022/05/10 00:06:09;;;;;;;0.60;0.60;;;;;;;1.73;71.76;99600.78;4803724;29;20058;-95
2022/05/10 00:08:40;;;;;;;0.70;0.70;;;;;;;1.66;71.75;99585.69;4794564;29;20127;-95
2022/05/10 00:11:09;;;;;;;0.60;0.60;;;;;;;1.80;71.46;99610.72;4767192;29;20145;-94
2022/05/10 00:13:37;;;;;;;0.60;0.60;;;;;;;1.63;71.66;99589.53;4804487;29;20050;-93
2022/05/10 00:16:08;;;;;;;0.70;0.70;;;;;;;1.55;71.75;99586.06;4806348;29;20061;-94
2022/05/10 00:18:36;;;;;;;0.70;0.70;;;;;;;1.61;71.93;99598.69;4804244;29;20079;-94
2022/05/10 00:21:05;;;;;;;0.70;0.70;;;;;;;1.65;71.85;99616.78;4789010;30;20567;-94
2022/05/10 00:23:34;;;;;;;0.57;0.57;;;;;;;1.46;72.28;99593.22;4807005;29;20102;-95
2022/05/10 00:26:01;;;;;;;0.80;0.80;;;;;;;1.42;72.31;99590.09;4811379;29;20041;-94
2022/05/10 00:28:29;;;;;;;0.70;0.70;;;;;;;1.29;72.35;99576.47;4811751;29;20047;-94
2022/05/10 00:30:58;;;;;;;0.70;0.70;;;;;;;1.23;72.56;99583.31;4818103;29;20060;-95
2022/05/10 00:33:34;;;;;;;0.80;0.80;;;;;;;1.36;72.97;99603.25;4834665;29;20077;-96
2022/05/10 00:36:01;;;;;;;0.70;0.70;;;;;;;1.21;72.85;99585.31;4811606;29;20034;-95
2022/05/10 00:38:36;;;;;;;0.80;0.80;;;;;;;1.27;72.78;99592.63;4814655;29;20051;-93
2022/05/10 00:41:12;;;;;;;0.70;0.70;;;;;;;1.41;72.32;99598.25;4814861;29;20075;-92
2022/05/10 00:43:43;;;;;;;0.70;0.70;;;;;;;1.41;72.16;99598.25;4828695;29;20110;-91
2022/05/10 00:46:30;;;;;;;0.80;0.80;;;;;;;1.47;71.89;99605.56;4806473;29;20062;-90
2022/05/10 00:49:24;;;;;;;0.80;0.80;;;;;;;1.48;72.04;99601.88;4792744;29;20055;-96
2022/05/10 00:52:09;;;;;;;0.70;0.70;;;;;;;1.45;71.60;99600.38;4807018;29;20061;-93
2022/05/10 00:54:51;;;;;;;0.70;0.70;;;;;;;1.39;71.57;99581.63;4782175;29;20059;-94
2022/05/10 00:57:50;;;;;;;0.77;0.77;;;;;;;1.42;71.27;99581.25;4808305;29;20092;-94
2022/05/10 01:00:25;;;;;;;0.80;0.80;;;;;;;1.33;71.19;99564.53;4761336;29;20078;-94
2022/05/10 01:03:22;;;;;;;0.70;0.70;;;;;;;1.39;71.33;99592.25;4791078;29;20059;-94
2022/05/10 01:06:08;;;;;;;0.60;0.60;;;;;;;1.30;71.68;99592.28;4848414;29;20061;-92
2022/05/10 01:08:48;;;;;;;0.70;0.70;;;;;;;1.14;71.93;99583.50;4826648;29;20058;-94
2022/05/10 01:11:28;;;;;;;0.60;0.60;;;;;;;1.08;71.96;99558.44;4805743;29;20059;-93
2022/05/10 01:14:08;;;;;;;0.70;0.70;;;;;;;1.22;71.61;99549.75;4794030;29;20065;-93
2022/05/10 01:16:37;;;;;;;0.80;0.80;;;;;;;1.26;71.50;99577.66;4789224;29;20065;-93
2022/05/10 01:19:09;;;;;;;0.70;0.70;;;;;;;1.25;71.53;99581.31;4807664;29;20066;-93
2022/05/10 01:22:40;;;;;;;0.80;0.80;;;;;;;1.30;71.67;99581.66;4782770;30;20066;-95
2022/05/10 01:25:43;;;;;;;0.77;0.77;;;;;;;1.27;71.66;99574.00;4749454;30;20254;-94
2022/05/10 01:28:39;;;;;;;0.50;0.50;;;;;;;1.18;71.50;99551.09;4722844;30;20085;-94
2022/05/10 01:31:19;;;;;;;0.65;0.65;;;;;;;1.25;71.35;99560.06;4697004;30;20061;-95
2022/05/10 01:33:51;;;;;;;0.80;0.80;;;;;;;1.13;71.47;99549.97;4740475;30;20133;-94
2022/05/10 01:36:56;;;;;;;0.77;0.77;;;;;;;1.29;71.35;99577.34;4735557;30;20533;-94
2022/05/10 01:39:25;;;;;;;0.90;0.90;;;;;;;1.36;71.20;99572.16;4732587;30;20577;-94
2022/05/10 01:42:18;;;;;;;0.70;0.70;;;;;;;1.39;70.85;99577.13;4744390;30;20053;-94
2022/05/10 01:45:25;;;;;;;;;;;;;;;1.36;71.03;99579.31;4712733;30;20185;-95
2022/05/10 01:48:03;;;;;;;0.77;0.77;;;;;;;1.22;71.01;99572.88;4732211;30;19935;-94
2022/05/10 01:50:40;;;;;;;0.77;0.77;;;;;;;1.29;71.13;99572.03;4732916;30;20060;-95
2022/05/10 01:53:35;;;;;;;0.65;0.65;;;;;;;1.19;71.52;99568.72;4735372;30;20143;-93
2022/05/10 01:56:05;;;;;;;;;;;;;;;1.18;71.43;99569.72;4739381;30;20063;-94
2022/05/10 01:58:37;;;;;;;0.70;0.70;;;;;;;0.90;71.93;99533.91;4734725;30;20334;-94
2022/05/10 02:01:17;;;;;;;0.73;0.73;;;;;;;1.14;71.87;99564.91;4772409;30;20048;-95
2022/05/10 02:04:08;;;;;;;0.75;0.75;;;;;;;0.98;72.01;99539.19;4762459;30;20112;-94
2022/05/10 02:06:54;;;;;;;0.60;0.60;;;;;;;0.94;72.18;99532.53;4762552;30;20531;-94
2022/05/10 02:09:43;;;;;;;0.70;0.70;;;;;;;0.94;72.33;99545.81;4803435;30;20542;-95
2022/05/10 02:12:20;;;;;;;0.70;0.70;;;;;;;0.90;72.26;99536.56;4766488;30;20066;-95
2022/05/10 02:15:14;;;;;;;0.65;0.65;;;;;;;1.19;72.07;99552.78;4764669;30;20119;-94
2022/05/10 02:18:05;;;;;;;0.70;0.70;;;;;;;1.15;71.96;99532.00;4793096;30;20113;-93
2022/05/10 02:20:38;;;;;;;0.60;0.60;;;;;;;1.19;71.77;99533.31;4791360;30;20047;-93
2022/05/10 02:23:14;;;;;;;0.80;0.80;;;;;;;1.14;71.70;99544.47;4874955;29;20082;-91
2022/05/10 02:25:48;;;;;;;0.70;0.70;;;;;;;1.20;71.75;99530.50;4861365;29;20046;-94
2022/05/10 02:28:19;;;;;;;;;;;;;;;1.32;71.69;99548.72;4850950;29;20066;-93
2022/05/10 02:30:54;;;;;;;0.70;0.70;;;;;;;1.13;71.75;99524.19;4830932;29;19928;-95
2022/05/10 02:33:26;;;;;;;0.77;0.77;;;;;;;1.17;71.56;99517.53;4862243;29;20060;-93
2022/05/10 02:35:59;;;;;;;0.65;0.65;;;;;;;1.34;70.97;99520.94;4834236;29;20061;-94
2022/05/10 02:38:41;;;;;;;0.70;0.70;;;;;;;1.52;70.41;99532.19;4865079;29;20045;-94
2022/05/10 02:41:17;;;;;;;0.70;0.70;;;;;;;1.58;70.03;99538.66;4867494;29;20058;-94
2022/05/10 02:43:54;;;;;;;0.70;0.70;;;;;;;1.66;69.77;99535.94;4833138;29;20049;-94
2022/05/10 02:46:26;;;;;;;0.60;0.60;;;;;;;1.65;69.61;99534.31;4821188;29;20053;-94
2022/05/10 02:48:56;;;;;;;0.63;0.63;;;;;;;1.80;69.61;99546.84;4814766;29;20062;-95
2022/05/10 02:51:25;;;;;;;0.70;0.70;;;;;;;1.89;69.56;99540.50;4798883;29;20058;-95
2022/05/10 02:53:57;;;;;;;0.70;0.70;;;;;;;1.77;69.26;99515.28;4791655;30;20057;-95
2022/05/10 02:56:44;;;;;;;0.73;0.73;;;;;;;2.01;68.57;99536.44;4771516;29;20626;-93
2022/05/10 02:59:31;;;;;;;0.80;0.80;;;;;;;1.83;68.21;99506.59;4769039;29;20058;-94
2022/05/10 03:02:31;;;;;;;0.57;0.57;;;;;;;2.09;68.09;99528.38;4798323;29;20051;-94
2022/05/10 03:04:59;;;;;;;0.70;0.70;;;;;;;1.94;68.07;99507.00;4783012;29;20391;-95
2022/05/10 03:07:41;;;;;;;0.60;0.60;;;;;;;1.92;67.86;99493.06;4773395;29;20557;-95
2022/05/10 03:10:12;;;;;;;0.80;0.80;;;;;;;2.17;67.72;99524.81;4755813;29;20065;-95
2022/05/10 03:12:50;;;;;;;0.77;0.77;;;;;;;2.08;67.09;99500.09;4760755;29;20079;-94
2022/05/10 03:15:27;;;;;;;0.70;0.70;;;;;;;2.13;67.04;99505.72;4787755;29;20076;-95
2022/05/10 03:17:59;;;;;;;0.80;0.80;;;;;;;2.16;67.06;99505.38;4803476;29;20054;-96
2022/05/10 03:20:32;;;;;;;0.60;0.60;;;;;;;2.25;66.49;99497.31;4786289;29;20060;-96
2022/05/10 03:23:24;;;;;;;0.70;0.70;;;;;;;2.27;66.37;99511.28;4820888;29;20573;-96
2022/05/10 03:29:21;;;;;;;0.73;0.73;;;;;;;2.55;66.08;99527.53;4840250;29;20118;-95
2022/05/10 03:32:08;;;;;;;0.70;0.70;;;;;;;2.48;66.04;99497.28;4817578;29;20038;-93
2022/05/10 03:35:23;;;;;;;0.60;0.60;;;;;;;2.80;65.69;99528.13;4773341;30;20066;-93
2022/05/10 03:37:51;;;;;;;0.68;0.68;;;;;;;2.67;65.58;99501.28;4800592;30;20087;-92
2022/05/10 03:40:28;;;;;;;0.70;0.70;;;;;;;2.84;65.01;99513.44;4773216;30;20051;-95
2022/05/10 03:43:32;;;;;;;;;;;;;;;3.07;64.05;99528.53;4801017;30;20058;-94
2022/05/10 03:46:07;;;;;;;0.73;0.73;;;;;;;3.04;63.31;99519.91;4806606;29;19929;-95
2022/05/10 03:48:44;;;;;;;0.77;0.77;;;;;;;3.00;62.66;99496.44;4782792;30;20035;-95
2022/05/10 03:51:21;;;;;;;0.73;0.73;;;;;;;3.19;62.57;99511.91;4772285;30;20647;-92
2022/05/10 03:53:48;;;;;;;0.80;0.80;;;;;;;3.35;63.04;99497.53;4746150;30;20052;-94
2022/05/10 03:56:23;;;;;;;;;;;;;;;3.60;63.07;99513.25;4733617;30;20078;-91
2022/05/10 03:58:51;;;;;;;0.80;0.80;;;;;;;3.63;62.01;99513.69;4758342;30;19999;-90
2022/05/10 04:01:22;;;;;;;0.68;0.68;;;;;;;3.57;60.11;99501.09;4776834;30;20067;-92
2022/05/10 04:03:53;;;;;;;0.60;0.60;;;;;;;3.73;59.79;99505.38;4853285;23;20072;-91
2022/05/10 04:06:23;;;;;;;0.60;0.60;;;;;;;3.75;60.13;99479.34;4894839;29;20059;-90
2022/05/10 04:09:13;;;;;;;0.60;0.60;;;;;;;4.07;60.08;99510.06;4863506;29;20057;-91
2022/05/10 04:11:44;;;;;;;0.80;0.80;;;;;;;4.14;58.83;99502.13;4874597;29;20057;-95
2022/05/10 04:14:13;;;;;;;0.70;0.70;;;;;;;4.20;57.80;99505.88;4828913;29;20061;-94
2022/05/10 04:16:45;;;;;;;0.80;0.80;;;;;;;4.24;58.13;99494.59;4811790;29;20129;-93
2022/05/10 04:19:12;;;;;;;0.70;0.70;;;;;;;4.54;57.92;99499.81;4795722;29;20446;-92
2022/05/10 04:21:39;;;;;;;0.70;0.70;;;;;;;4.82;57.09;99493.66;4825249;29;20103;-91
2022/05/10 04:24:09;;;;;;;0.70;0.70;;;;;;;5.10;55.80;99491.75;4828831;29;20254;-91
2022/05/10 04:26:37;;;;;;;0.88;0.88;;;;;;;5.11;54.29;99493.41;4823340;29;20062;-93
2022/05/10 04:29:08;;;;;;;0.80;0.80;;;;;;;4.92;54.25;99470.03;4825151;29;20099;-92
2022/05/10 04:31:36;;;;;;;0.57;0.57;;;;;;;5.00;54.25;99469.88;4808536;29;20087;-88
2022/05/10 04:34:03;;;;;;;0.68;0.68;;;;;;;5.31;54.04;99492.69;4823512;29;20077;-90
2022/05/10 04:36:30;;;;;;;0.68;0.68;;;;;;;5.48;53.37;99499.34;4824767;29;20058;-93
2022/05/10 04:38:57;;;;;;;0.70;0.70;;;;;;;5.42;51.90;99484.09;4812029;29;20050;-90
2022/05/10 04:41:28;;;;;;;0.77;0.77;;;;;;;5.39;51.78;99471.09;4799123;29;20054;-89
2022/05/10 04:44:02;;;;;;;0.70;0.70;;;;;;;5.38;51.47;99462.25;4824913;29;20502;-92
2022/05/10 04:46:35;;;;;;;0.77;0.77;;;;;;;5.67;51.83;99472.84;4850992;29;20057;-91
2022/05/10 04:49:03;;;;;;;0.70;0.70;;;;;;;5.97;52.18;99482.22;4851866;29;20073;-93
2022/05/10 04:51:32;;;;;;;0.60;0.60;;;;;;;5.97;51.47;99465.34;4878995;29;20048;-91
2022/05/10 04:54:03;;;;;;;0.70;0.70;;;;;;;5.93;50.14;99451.50;4868721;29;20070;-91
2022/05/10 04:56:30;;;;;;;0.70;0.70;;;;;;;5.92;50.19;99468.59;4859180;29;20062;-91
2022/05/10 04:58:57;;;;;;;0.70;0.70;;;;;;;5.89;50.10;99463.66;4863139;29;20101;-91
2022/05/10 05:01:27;;;;;;;0.70;0.70;;;;;;;5.93;49.78;99448.81;4831096;29;20056;-90
2022/05/10 05:04:00;;;;;;;0.70;0.70;;;;;;;5.93;50.14;99442.66;4844522;29;20088;-92
2022/05/10 05:06:28;;;;;;;0.70;0.70;;;;;;;5.99;50.71;99442.66;4862140;29;20448;-92
2022/05/10 05:08:57;;;;;;;0.70;0.70;;;;;;;6.15;49.48;99464.75;4830468;29;20144;-91
2022/05/10 05:11:25;;;;;;;0.70;0.70;;;;;;;6.19;50.13;99457.97;4859869;29;20053;-92
2022/05/10 05:13:54;;;;;;;0.70;0.70;;;;;;;6.46;50.09;99454.25;4861090;29;20054;-91
2022/05/10 05:16:22;;;;;;;0.70;0.70;;;;;;;6.37;48.60;99442.09;4815372;29;20049;-91
2022/05/10 05:18:49;;;;;;;0.75;0.75;;;;;;;6.41;49.09;99453.22;4846398;29;20128;-90
2022/05/10 05:21:17;;;;;;;0.60;0.60;;;;;;;6.33;48.76;99446.22;4830198;29;20121;-91
2022/05/10 05:23:47;;;;;;;0.60;0.60;;;;;;;6.45;49.54;99439.19;4846308;29;20513;-91
2022/05/10 05:26:14;;;;;;;0.70;0.70;;;;;;;6.69;49.02;99418.97;4846890;29;20502;-91
2022/05/10 05:28:44;;;;;;;0.70;0.70;;;;;;;6.75;48.00;99414.59;4831148;29;20532;-91
2022/05/10 05:31:13;;;;;;;0.70;0.70;;;;;;;6.92;47.61;99442.63;4859319;29;20101;-91
2022/05/10 05:33:45;;;;;;;0.70;0.70;;;;;;;6.93;47.57;99422.81;4845099;29;20045;-90
2022/05/10 05:36:12;;;;;;;0.73;0.73;;;;;;;6.90;47.10;99423.22;4844683;29;20129;-90
2022/05/10 05:38:40;;;;;;;0.70;0.70;;;;;;;6.96;47.10;99405.47;4844327;29;20054;-89
2022/05/10 05:41:07;;;;;;;0.70;0.70;;;;;;;7.05;47.22;99408.75;4860422;29;20062;-92
2022/05/10 05:43:35;;;;;;;0.70;0.70;;;;;;;7.38;47.55;99422.88;4845671;29;20057;-90
2022/05/10 05:46:03;;;;;;;0.70;0.70;;;;;;;7.48;47.02;99389.38;4830552;29;20054;-91
2022/05/10 05:48:40;;;;;;;0.70;0.70;;;;;;;7.77;45.79;99421.03;4861774;29;20059;-90
2022/05/10 05:51:09;;;;;;;0.80;0.80;;;;;;;7.76;45.09;99405.09;4860390;29;20061;-89
2022/05/10 05:53:37;;;;;;;0.70;0.70;;;;;;;7.79;45.98;99391.22;4844079;29;20416;-89
2022/05/10 05:56:09;;;;;;;0.70;0.70;;;;;;;7.96;44.22;99389.66;4859777;29;20537;-90
2022/05/10 05:58:38;;;;;;;0.70;0.70;;;;;;;8.21;43.52;99375.44;4846678;29;20593;-90
2022/05/10 06:01:12;;;;;;;0.80;0.80;;;;;;;8.45;42.50;99384.53;4845251;29;20509;-91
2022/05/10 06:03:41;;;;;;;0.80;0.80;;;;;;;8.56;42.62;99375.75;4860456;29;20114;-91
2022/05/10 06:06:10;;;;;;;0.60;0.60;;;;;;;8.60;42.43;99392.25;4848560;29;20430;-90
2022/05/10 06:08:43;;;;;;;0.70;0.70;;;;;;;8.51;41.22;99388.19;4849437;29;20069;-91
2022/05/10 06:11:10;;;;;;;0.70;0.70;;;;;;;8.46;41.81;99383.50;4847222;29;20049;-90
2022/05/10 06:13:37;;;;;;;0.70;0.70;;;;;;;8.45;40.56;99371.09;4863076;29;20425;-92
2022/05/10 06:16:08;;;;;;;0.65;0.65;;;;;;;8.22;40.66;99366.31;4862529;29;20057;-93
2022/05/10 06:18:39;;;;;;;0.70;0.70;;;;;;;7.73;41.29;99363.38;4843468;29;20050;-91
2022/05/10 06:21:08;;;;;;;0.68;0.68;;;;;;;7.55;41.69;99374.03;4860228;29;20060;-92
2022/05/10 06:23:38;;;;;;;0.70;0.70;;;;;;;7.53;41.63;99360.81;4843371;29;20073;-92
2022/05/10 06:26:05;;;;;;;0.80;0.80;;;;;;;8.09;40.94;99374.50;4828097;29;20462;-92
2022/05/10 06:28:32;;;;;;;0.70;0.70;;;;;;;8.38;40.19;99363.06;4843853;29;20049;-90
2022/05/10 06:31:01;;;;;;;0.80;0.80;;;;;;;7.91;40.05;99345.69;4860451;29;20049;-90
2022/05/10 06:33:29;;;;;;;0.80;0.80;;;;;;;8.01;39.80;99356.78;4843756;29;20051;-92
2022/05/10 06:35:56;;;;;;;0.70;0.70;;;;;;;8.22;39.69;99361.75;4844484;29;20073;-92
2022/05/10 06:38:29;;;;;;;0.70;0.70;;;;;;;8.03;38.82;99331.31;4860725;29;20081;-92
2022/05/10 06:41:04;;;;;;;0.70;0.70;;;;;;;8.11;40.58;99332.91;4829116;29;20077;-91
2022/05/10 06:43:36;;;;;;;0.70;0.70;;;;;;;8.16;39.78;99343.81;4832369;29;20057;-92
2022/05/10 06:46:14;;;;;;;0.70;0.70;;;;;;;8.08;40.45;99333.34;4864082;29;20094;-91
2022/05/10 06:48:45;;;;;;;0.60;0.60;;;;;;;7.90;39.96;99341.34;4853767;29;20053;-91
2022/05/10 06:51:15;;;;;;;0.70;0.70;;;;;;;7.87;39.44;99334.53;4869818;29;20077;-91
2022/05/10 06:53:42;;;;;;;0.70;0.70;;;;;;;8.02;39.93;99328.84;4854127;29;20049;-91
2022/05/10 06:56:10;;;;;;;0.80;0.80;;;;;;;8.16;38.86;99330.38;4879146;29;20053;-89
2022/05/10 06:58:38;;;;;;;0.70;0.70;;;;;;;8.30;38.33;99301.47;4866151;29;20200;-88
2022/05/10 07:01:10;;;;;;;0.70;0.70;;;;;;;8.30;38.20;99317.63;4867826;29;20045;-90
2022/05/10 07:03:44;;;;;;;0.60;0.60;;;;;;;8.25;38.20;99329.06;4880402;29;20077;-92
2022/05/10 07:06:14;;;;;;;0.70;0.70;;;;;;;8.29;38.42;99325.91;4865459;29;20425;-91
2022/05/10 07:08:42;;;;;;;0.70;0.70;;;;;;;8.24;38.13;99308.56;4864642;29;20071;-93
2022/05/10 07:11:09;;;;;;;0.70;0.70;;;;;;;8.54;38.15;99328.59;4848692;29;20049;-92
2022/05/10 07:13:37;;;;;;;0.70;0.70;;;;;;;8.67;37.13;99307.75;4847916;29;20049;-90
2022/05/10 07:16:07;;;;;;;0.70;0.70;;;;;;;8.72;37.44;99309.75;4847980;29;20049;-93
2022/05/10 07:18:34;;;;;;;0.60;0.60;;;;;;;8.55;36.60;99304.16;4855669;29;20117;-92
2022/05/10 07:21:02;;;;;;;0.70;0.70;;;;;;;8.18;37.44;99298.72;4855765;29;20049;-93
2022/05/10 07:23:30;;;;;;;0.70;0.70;;;;;;;8.33;37.39;99309.13;4853646;29;20402;-91
2022/05/10 07:26:03;;;;;;;0.80;0.80;;;;;;;8.44;35.88;99294.16;4848432;29;20049;-93
2022/05/10 07:28:32;;;;;;;0.70;0.70;;;;;;;8.56;35.91;99288.81;4864003;29;20050;-91
2022/05/10 07:31:00;;;;;;;0.70;0.70;;;;;;;8.61;35.02;99286.31;4867787;29;20050;-91
2022/05/10 07:33:28;;;;;;;0.70;0.70;;;;;;;8.50;36.06;99300.50;4850371;29;20102;-91
2022/05/10 07:38:42;;;;;;;0.80;0.80;;;;;;;8.65;34.78;99271.34;4847866;29;20077;-92
2022/05/10 07:41:11;;;;;;;0.80;0.80;;;;;;;8.97;35.13;99293.50;4862759;29;20045;-91
2022/05/10 07:43:43;;;;;;;0.70;0.70;;;;;;;8.77;35.01;99287.56;4860976;29;20068;-90
2022/05/10 07:46:10;;;;;;;0.68;0.68;;;;;;;8.65;35.75;99256.00;4863970;29;20049;-92
2022/05/10 07:48:38;;;;;;;0.70;0.70;;;;;;;8.80;35.79;99274.47;4848389;29;20049;-90
2022/05/10 07:51:06;;;;;;;0.70;0.70;;;;;;;8.49;35.44;99272.78;4847461;29;20089;-92
2022/05/10 07:53:40;;;;;;;0.60;0.60;;;;;;;8.62;34.88;99277.19;4846325;29;20053;-92
2022/05/10 07:56:15;;;;;;;0.70;0.70;;;;;;;8.51;34.70;99273.38;4862480;29;20109;-90
2022/05/10 07:58:53;;;;;;;0.80;0.80;;;;;;;8.64;35.15;99249.00;4866673;29;20066;-92
2022/05/10 08:01:23;;;;;;;0.80;0.80;;;;;;;8.96;34.63;99267.63;4868031;29;20600;-91
2022/05/10 08:03:51;;;;;;;0.80;0.80;;;;;;;9.06;33.69;99262.56;4852196;29;20200;-89
2022/05/10 08:06:27;;;;;;;0.80;0.80;;;;;;;9.19;33.97;99261.53;4864913;29;20063;-89
2022/05/10 08:08:54;;;;;;;0.90;0.90;;;;;;;9.66;34.10;99266.22;4868471;29;20082;-89
2022/05/10 08:11:22;;;;;;;0.90;0.90;;;;;;;10.06;33.82;99249.38;4847919;29;20061;-92
2022/05/10 08:13:49;;;;;;;0.85;0.85;;;;;;;10.78;32.42;99262.50;4862954;29;20061;-92
2022/05/10 08:16:18;;;;;;;0.70;0.70;;;;;;;10.24;32.68;99235.75;4864691;29;20517;-91
2022/05/10 08:18:48;;;;;;;0.70;0.70;;;;;;;10.38;33.51;99263.31;4861206;29;20057;-89
2022/05/10 08:21:16;;;;;;;0.70;0.70;;;;;;;10.32;32.22;99253.47;4846663;29;20143;-91
2022/05/10 08:23:45;;;;;;;0.70;0.70;;;;;;;10.16;32.71;99250.41;4862760;29;20053;-90
2022/05/10 08:26:12;;;;;;;0.70;0.70;;;;;;;10.27;31.83;99237.97;4833415;29;20049;-90
2022/05/10 08:28:39;;;;;;;0.68;0.68;;;;;;;10.00;32.01;99232.22;4847294;29;20055;-90
2022/05/10 08:31:08;;;;;;;0.70;0.70;;;;;;;9.45;32.03;99236.06;4863371;29;20148;-89
2022/05/10 08:33:37;;;;;;;0.70;0.70;;;;;;;9.21;32.76;99240.56;4863830;29;20056;-89
2022/05/10 08:36:06;;;;;;;0.80;0.80;;;;;;;9.33;32.60;99227.94;4861207;29;20564;-90
2022/05/10 08:38:36;;;;;;;0.70;0.70;;;;;;;9.63;32.43;99208.22;4861765;29;20057;-90
2022/05/10 08:41:20;;;;;;;1.00;1.00;;;;;;;10.08;32.23;99214.91;4862683;29;20429;-90
2022/05/10 08:44:17;;;;;;;0.90;0.90;;;;;;;10.71;31.12;99207.84;4862540;29;20050;-90
2022/05/10 08:46:52;;;;;;;0.80;0.80;;;;;;;11.55;30.18;99205.31;4786154;30;20655;-91
2022/05/10 08:49:33;;;;;;;0.70;0.70;;;;;;;11.13;31.06;99216.47;4787066;30;20079;-90
2022/05/10 08:52:01;;;;;;;0.60;0.60;;;;;;;10.60;32.17;99190.63;4788213;30;20067;-90
2022/05/10 08:54:42;;;;;;;0.60;0.60;;;;;;;10.35;32.85;99205.25;4740042;30;20571;-92
2022/05/10 08:57:39;;;;;;;0.60;0.60;;;;;;;10.37;32.52;99200.44;4775112;30;20055;-89
2022/05/10 09:00:30;;;;;;;0.60;0.60;;;;;;;9.85;31.60;99177.97;4755688;30;20051;-90
2022/05/10 09:03:00;;;;;;;0.70;0.70;;;;;;;10.06;31.33;99184.66;4754231;30;20093;-90
2022/05/10 09:06:25;;;;;;;0.70;0.70;;;;;;;10.39;30.75;99195.63;4771987;30;20440;-92
2022/05/10 09:08:58;;;;;;;0.70;0.70;;;;;;;10.58;29.90;99190.06;4773879;30;20061;-91
2022/05/10 09:11:51;;;;;;;0.70;0.70;;;;;;;10.44;29.89;99165.22;4756768;30;20056;-90
2022/05/10 09:14:50;;;;;;;0.60;0.60;;;;;;;9.67;30.50;99174.38;4758448;30;20055;-91
2022/05/10 09:17:19;;;;;;;0.63;0.63;;;;;;;9.47;30.82;99166.63;4749785;30;20633;-90
2022/05/10 09:19:46;;;;;;;0.60;0.60;;;;;;;9.61;31.23;99159.13;4777865;30;20099;-89
2022/05/10 09:22:42;;;;;;;0.68;0.68;;;;;;;9.61;31.66;99161.00;4778771;30;20043;-89
2022/05/10 09:25:20;;;;;;;0.50;0.50;;;;;;;9.67;31.99;99163.59;4821141;29;20182;-90
2022/05/10 09:27:48;;;;;;;0.60;0.60;;;;;;;9.78;30.96;99161.94;4844548;29;20604;-88
2022/05/10 09:30:33;;;;;;;0.60;0.60;;;;;;;9.91;31.25;99168.94;4829786;29;20061;-90
2022/05/10 09:36:05;;;;;;;0.60;0.60;;;;;;;9.44;31.06;99118.56;4860731;29;20124;-89
2022/05/10 09:38:45;;;;;;;0.60;0.60;;;;;;;9.29;30.50;99174.78;4849695;29;20068;-90
2022/05/10 09:41:45;;;;;;;0.70;0.70;;;;;;;9.38;30.19;99162.63;4845171;29;20053;-89
2022/05/10 09:44:23;;;;;;;0.60;0.60;;;;;;;9.34;29.73;99150.66;4772903;30;20055;-90
2022/05/10 09:46:51;;;;;;;0.60;0.60;;;;;;;9.29;30.01;99164.00;4772489;30;20063;-89
2022/05/10 09:49:35;;;;;;;0.60;0.60;;;;;;;9.50;30.28;99176.91;4788111;30;20167;-89
2022/05/10 09:52:03;;;;;;;0.60;0.60;;;;;;;9.39;30.39;99158.03;4787163;30;20131;-91
2022/05/10 09:54:37;;;;;;;0.60;0.60;;;;;;;9.39;30.43;99183.09;4772387;30;20524;-91
2022/05/10 09:57:09;;;;;;;0.60;0.60;;;;;;;9.37;31.12;99177.16;4773388;30;20142;-91
2022/05/10 09:59:43;;;;;;;0.60;0.60;;;;;;;9.39;30.75;99172.31;4787163;30;20051;-91
2022/05/10 10:02:11;;;;;;;0.60;0.60;;;;;;;9.47;30.99;99185.47;4788767;29;20074;-88
2022/05/10 10:04:44;;;;;;;0.60;0.60;;;;;;;9.39;31.33;99199.25;4735302;30;20143;-90
2022/05/10 10:07:24;;;;;;;0.50;0.50;;;;;;;9.26;31.82;99180.63;4770771;30;20079;-91
2022/05/10 10:09:55;;;;;;;0.50;0.50;;;;;;;9.25;31.43;99165.53;4769107;30;20056;-91
2022/05/10 10:12:37;;;;;;;0.60;0.60;;;;;;;9.27;31.36;99187.69;4753549;30;20512;-91
2022/05/10 10:15:40;;;;;;;0.60;0.60;;;;;;;9.30;31.71;99160.28;4753658;30;20055;-89
2022/05/10 10:18:11;;;;;;;0.60;0.60;;;;;;;9.30;31.12;99160.28;4753347;30;20446;-89
2022/05/10 10:20:49;;;;;;;0.70;0.70;;;;;;;9.37;31.17;99181.69;4789806;29;20113;-90
2022/05/10 10:23:38;;;;;;;0.60;0.60;;;;;;;9.29;31.77;99194.47;4825586;29;20083;-91
2022/05/10 10:26:16;;;;;;;0.70;0.70;;;;;;;9.17;32.34;99172.09;4843012;29;20514;-89
2022/05/10 10:28:54;;;;;;;0.60;0.60;;;;;;;9.14;32.96;99179.78;4828002;29;20049;-91
2022/05/10 10:31:33;;;;;;;0.60;0.60;;;;;;;9.30;32.61;99179.13;4842554;29;20057;-89
2022/05/10 10:34:03;;;;;;;0.63;0.63;;;;;;;9.01;32.90;99172.72;4842324;29;20541;-90
2022/05/10 10:36:37;;;;;;;0.60;0.60;;;;;;;8.98;33.55;99203.63;4841016;29;20053;-90
2022/05/10 10:39:17;;;;;;;0.60;0.60;;;;;;;8.81;34.42;99195.38;4826102;29;20057;-88
2022/05/10 10:41:48;;;;;;;0.60;0.60;;;;;;;8.64;34.37;99152.16;4826466;29;20061;-89
2022/05/10 10:44:20;;;;;;;0.70;0.70;;;;;;;8.74;33.89;99158.84;4826538;29;20056;-88
2022/05/10 10:46:50;;;;;;;0.70;0.70;;;;;;;8.70;33.90;99176.50;4841705;29;20486;-89
2022/05/10 10:49:25;;;;;;;0.60;0.60;;;;;;;8.59;34.08;99149.31;4827151;29;20053;-91
2022/05/10 10:51:58;;;;;;;0.60;0.60;;;;;;;8.51;33.93;99175.69;4835189;29;20058;-88
2022/05/10 10:54:28;;;;;;;0.60;0.60;;;;;;;8.41;33.82;99157.44;4849470;29;20050;-89
2022/05/10 10:57:17;;;;;;;0.60;0.60;;;;;;;8.45;34.89;99177.44;4829063;29;20046;-89
2022/05/10 10:59:52;;;;;;;0.60;0.60;;;;;;;8.62;34.53;99174.94;4842518;29;20107;-89
2022/05/10 11:02:34;;;;;;;0.60;0.60;;;;;;;8.60;35.06;99191.31;4840750;29;20161;-89
2022/05/10 11:05:18;;;;;;;0.50;0.50;;;;;;;8.44;35.09;99183.88;4837803;29;20144;-89
2022/05/10 11:08:04;;;;;;;0.60;0.60;;;;;;;8.45;35.50;99180.13;4859418;29;20053;-90
2022/05/10 11:10:51;;;;;;;0.60;0.60;;;;;;;8.35;36.22;99188.69;4842970;29;20107;-88
2022/05/10 11:13:44;;;;;;;0.60;0.60;;;;;;;8.22;37.32;99192.34;4859911;29;20053;-90
2022/05/10 11:16:34;;;;;;;0.60;0.60;;;;;;;8.14;37.43;99176.53;4860343;29;20489;-89
2022/05/10 11:19:20;;;;;;;0.60;0.60;;;;;;;8.14;37.29;99200.72;4860927;29;20101;-89
2022/05/10 11:22:06;;;;;;;0.60;0.60;;;;;;;8.18;37.83;99195.75;4862983;29;20077;-87
2022/05/10 11:24:36;;;;;;;0.60;0.60;;;;;;;8.29;37.72;99186.09;4845811;29;20104;-87
2022/05/10 11:27:14;;;;;;;0.60;0.60;;;;;;;8.13;37.00;99185.66;4848559;29;20121;-89
2022/05/10 11:30:09;;;;;;;0.60;0.60;;;;;;;8.03;37.70;99207.66;4844414;29;20128;-89
2022/05/10 11:33:05;;;;;;;0.60;0.60;;;;;;;8.12;38.00;99185.88;4864921;29;20055;-90
2022/05/10 11:35:55;;;;;;;0.60;0.60;;;;;;;8.18;38.31;99211.88;4847416;29;20525;-89
2022/05/10 11:38:47;;;;;;;0.50;0.50;;;;;;;8.09;39.22;99208.63;4862057;29;20053;-88
2022/05/10 11:41:36;;;;;;;0.60;0.60;;;;;;;8.03;39.42;99229.19;4861467;29;20421;-88
2022/05/10 11:44:09;;;;;;;0.60;0.60;;;;;;;8.09;39.73;99219.38;4831406;29;20061;-90
2022/05/10 11:46:43;;;;;;;0.52;0.52;;;;;;;8.06;39.62;99219.84;4847094;29;20053;-90
2022/05/10 11:49:28;;;;;;;0.50;0.50;;;;;;;7.56;41.46;99217.22;4862167;29;20085;-90
2022/05/10 11:52:07;;;;;;;;;;;;;;;7.24;43.40;99227.16;4862430;29;20140;-90
2022/05/10 11:55:28;;;;;;;0.60;0.60;;;;;;;6.61;47.34;99244.00;4861893;29;19928;-89
2022/05/10 11:57:58;;;;;;;0.60;0.60;;;;;;;6.40;50.54;99245.13;4786461;30;20594;-87
2022/05/10 12:00:31;;;;;;;0.70;0.70;;;;;;;6.26;53.11;99276.53;4786993;30;20067;-88
2022/05/10 12:03:03;;;;;;;0.70;0.70;;;;;;;6.03;55.73;99269.75;4787310;30;20115;-88
2022/05/10 12:05:35;;;;;;;0.70;0.70;;;;;;;5.79;57.15;99256.97;4787237;29;20055;-88
2022/05/10 12:08:23;;;;;;;0.60;0.60;;;;;;;5.51;58.28;99260.69;4773075;30;20051;-89
2022/05/10 12:10:51;;;;;;;0.70;0.70;;;;;;;5.55;59.14;99274.50;4773683;30;20062;-89
2022/05/10 12:22:19;;;;;;;0.70;0.70;;;;;;;5.78;58.90;99244.63;4776509;30;20051;-89
2022/05/10 12:24:49;;;;;;;0.70;0.70;;;;;;;5.94;58.46;99267.50;4793077;30;20058;-90
2022/05/10 12:27:16;;;;;;;0.70;0.70;;;;;;;6.05;59.03;99262.34;4794092;30;20153;-90
2022/05/10 12:29:44;;;;;;;0.70;0.70;;;;;;;6.09;59.31;99265.44;4775801;30;20116;-88
2022/05/10 12:32:39;;;;;;;0.70;0.70;;;;;;;6.12;59.23;99256.97;4766441;29;20230;-91
2022/05/10 12:35:35;;;;;;;0.70;0.70;;;;;;;6.02;58.92;99241.31;4849325;29;20057;-90
2022/05/10 12:38:03;;;;;;;0.70;0.70;;;;;;;6.12;60.20;99256.97;4808599;29;20081;-90
2022/05/10 12:40:34;;;;;;;0.70;0.70;;;;;;;6.28;59.64;99245.81;4795099;29;20158;-91